sensor_id;sensor_type;location;lat;lon;timestamp;pressure;altitude;pressure_sealevel;temperature;humidity
967;BME280;56108;48.730;9.304;2024-03-23T00:54:08;96838.72;;;7.72;100.00
967;BME280;56108;48.730;9.304;2024-03-23T00:56:12;96839.66;;;7.71;100.00
967;BME280;56108;48.730;9.304;2024-03-23T00:58:17;96833.22;;;7.75;100.00
967;BME280;56108;48.730;9.304;2024-03-23T01:00:23;96835.53;;;7.79;100.00
967;BME280;56108;48.730;9.304;2024-03-23T01:02:28;96822.16;;;7.94;100.00
967;BME280;56108;48.730;9.304;2024-03-23T01:04:32;96819.06;;;8.00;100.00
967;BME280;56108;48.730;9.304;2024-03-23T01:06:36;96820.97;;;7.98;100.00
967;BME280;56108;48.730;9.304;2024-03-23T01:08:40;96816.88;;;7.81;100.00
967;BME280;56108;48.730;9.304;2024-03-23T01:10:54;96817.63;;;7.83;100.00
967;BME280;56108;48.730;9.304;2024-03-23T01:12:58;96813.94;;;7.73;100.00
967;BME280;56108;48.730;9.304;2024-03-23T01:15:03;96813.50;;;7.66;100.00
967;BME280;56108;48.730;9.304;2024-03-23T01:17:10;96810.13;;;7.64;100.00
967;BME280;56108;48.730;9.304;2024-03-23T01:19:14;96809.91;;;7.67;100.00
967;BME280;56108;48.730;9.304;2024-03-23T01:21:18;96806.09;;;7.71;100.00
967;BME280;56108;48.730;9.304;2024-03-23T01:23:23;96807.13;;;7.81;100.00
967;BME280;56108;48.730;9.304;2024-03-23T01:25:27;96797.97;;;7.98;100.00
967;BME280;56108;48.730;9.304;2024-03-23T01:27:31;96799.75;;;8.10;100.00
967;BME280;56108;48.730;9.304;2024-03-23T01:29:36;96797.72;;;8.14;100.00
967;BME280;56108;48.730;9.304;2024-03-23T01:31:40;96788.31;;;8.10;100.00
967;BME280;56108;48.730;9.304;2024-03-23T01:33:47;96790.13;;;8.09;100.00
967;BME280;56108;48.730;9.304;2024-03-23T01:35:51;96784.31;;;8.04;100.00
967;BME280;56108;48.730;9.304;2024-03-23T01:37:56;96786.31;;;8.01;100.00
967;BME280;56108;48.730;9.304;2024-03-23T01:40:00;96789.28;;;7.96;100.00
967;BME280;56108;48.730;9.304;2024-03-23T01:42:04;96778.25;;;8.02;100.00
967;BME280;56108;48.730;9.304;2024-03-23T01:44:09;96777.41;;;8.39;100.00
967;BME280;56108;48.730;9.304;2024-03-23T01:46:13;96786.63;;;8.81;100.00
967;BME280;56108;48.730;9.304;2024-03-23T01:48:17;96789.22;;;8.70;100.00
967;BME280;56108;48.730;9.304;2024-03-23T01:50:24;96781.63;;;8.65;100.00
967;BME280;56108;48.730;9.304;2024-03-23T01:52:29;96785.16;;;8.77;100.00
967;BME280;56108;48.730;9.304;2024-03-23T01:54:33;96784.59;;;8.84;100.00
967;BME280;56108;48.730;9.304;2024-03-23T01:56:39;96780.25;;;8.83;100.00
967;BME280;56108;48.730;9.304;2024-03-23T01:58:43;96772.44;;;8.93;100.00
967;BME280;56108;48.730;9.304;2024-03-23T02:00:47;96758.44;;;8.91;100.00
967;BME280;56108;48.730;9.304;2024-03-23T02:02:51;96761.41;;;8.86;100.00
967;BME280;56108;48.730;9.304;2024-03-23T02:04:55;96761.34;;;8.99;100.00
967;BME280;56108;48.730;9.304;2024-03-23T02:07:02;96755.19;;;8.99;100.00
967;BME280;56108;48.730;9.304;2024-03-23T02:09:06;96761.22;;;9.01;100.00
967;BME280;56108;48.730;9.304;2024-03-23T02:11:11;96752.44;;;9.00;100.00
967;BME280;56108;48.730;9.304;2024-03-23T02:13:15;96743.63;;;9.11;100.00
967;BME280;56108;48.730;9.304;2024-03-23T02:15:20;96736.44;;;9.35;100.00
967;BME280;56108;48.730;9.304;2024-03-23T02:17:24;96745.22;;;9.25;100.00
967;BME280;56108;48.730;9.304;2024-03-23T02:19:28;96742.81;;;9.22;100.00
967;BME280;56108;48.730;9.304;2024-03-23T02:21:32;96736.66;;;9.21;100.00
967;BME280;56108;48.730;9.304;2024-03-23T02:23:39;96741.47;;;9.16;100.00
967;BME280;56108;48.730;9.304;2024-03-23T02:25:44;96737.00;;;9.17;100.00
967;BME280;56108;48.730;9.304;2024-03-23T02:27:48;96727.47;;;9.14;100.00
967;BME280;56108;48.730;9.304;2024-03-23T02:29:52;96723.38;;;9.10;100.00
967;BME280;56108;48.730;9.304;2024-03-23T02:31:57;96715.41;;;9.10;100.00
967;BME280;56108;48.730;9.304;2024-03-23T02:34:03;96719.38;;;9.04;100.00
967;BME280;56108;48.730;9.304;2024-03-23T02:36:07;96722.03;;;9.15;100.00
967;BME280;56108;48.730;9.304;2024-03-23T02:38:11;96713.81;;;9.19;100.00
967;BME280;56108;48.730;9.304;2024-03-23T02:40:20;96716.38;;;9.20;100.00
967;BME280;56108;48.730;9.304;2024-03-23T02:42:24;96712.50;;;9.13;100.00
967;BME280;56108;48.730;9.304;2024-03-23T02:44:29;96719.88;;;9.09;100.00
967;BME280;56108;48.730;9.304;2024-03-23T02:46:33;96719.63;;;9.24;100.00
967;BME280;56108;48.730;9.304;2024-03-23T02:48:37;96722.41;;;9.22;100.00
967;BME280;56108;48.730;9.304;2024-03-23T02:50:41;96722.41;;;9.22;100.00
967;BME280;56108;48.730;9.304;2024-03-23T02:52:46;96713.94;;;9.17;100.00
967;BME280;56108;48.730;9.304;2024-03-23T02:54:50;96701.78;;;9.14;100.00
967;BME280;56108;48.730;9.304;2024-03-23T02:56:57;96699.84;;;9.05;100.00
967;BME280;56108;48.730;9.304;2024-03-23T02:59:01;96702.63;;;9.26;100.00
967;BME280;56108;48.730;9.304;2024-03-23T03:01:06;96705.50;;;9.23;100.00
967;BME280;56108;48.730;9.304;2024-03-23T03:03:10;96699.47;;;9.21;100.00
967;BME280;56108;48.730;9.304;2024-03-23T03:05:14;96689.94;;;9.41;100.00
967;BME280;56108;48.730;9.304;2024-03-23T03:07:18;96696.47;;;9.26;100.00
967;BME280;56108;48.730;9.304;2024-03-23T03:09:22;96693.06;;;9.24;100.00
967;BME280;56108;48.730;9.304;2024-03-23T03:11:27;96687.06;;;9.10;100.00
967;BME280;56108;48.730;9.304;2024-03-23T03:13:33;96678.47;;;9.18;100.00
967;BME280;56108;48.730;9.304;2024-03-23T03:15:38;96679.94;;;9.22;100.00
967;BME280;56108;48.730;9.304;2024-03-23T03:17:44;96677.28;;;9.11;100.00
967;BME280;56108;48.730;9.304;2024-03-23T03:19:49;96680.53;;;9.14;100.00
967;BME280;56108;48.730;9.304;2024-03-23T03:21:53;96678.00;;;9.13;100.00
967;BME280;56108;48.730;9.304;2024-03-23T03:23:57;96681.88;;;9.09;100.00
967;BME280;56108;48.730;9.304;2024-03-23T03:26:01;96686.56;;;9.05;100.00
967;BME280;56108;48.730;9.304;2024-03-23T03:28:05;96681.13;;;9.18;100.00
967;BME280;56108;48.730;9.304;2024-03-23T03:30:13;96673.28;;;9.05;100.00
967;BME280;56108;48.730;9.304;2024-03-23T03:32:17;96677.50;;;8.97;100.00
967;BME280;56108;48.730;9.304;2024-03-23T03:34:22;96674.38;;;9.03;100.00
967;BME280;56108;48.730;9.304;2024-03-23T03:36:26;96666.28;;;9.27;100.00
967;BME280;56108;48.730;9.304;2024-03-23T03:38:30;96666.28;;;9.27;100.00
967;BME280;56108;48.730;9.304;2024-03-23T03:40:35;96667.88;;;9.40;100.00
967;BME280;56108;48.730;9.304;2024-03-23T03:42:39;96657.00;;;9.32;100.00
967;BME280;56108;48.730;9.304;2024-03-23T03:44:43;96658.81;;;9.32;100.00
967;BME280;56108;48.730;9.304;2024-03-23T03:46:50;96655.81;;;9.25;100.00
967;BME280;56108;48.730;9.304;2024-03-23T03:48:54;96661.72;;;9.18;100.00
967;BME280;56108;48.730;9.304;2024-03-23T03:50:59;96659.91;;;9.07;100.00
967;BME280;56108;48.730;9.304;2024-03-23T03:53:03;96644.94;;;8.95;100.00
967;BME280;56108;48.730;9.304;2024-03-23T03:55:12;96636.63;;;8.88;100.00
967;BME280;56108;48.730;9.304;2024-03-23T03:57:17;96630.22;;;8.79;100.00
967;BME280;56108;48.730;9.304;2024-03-23T03:59:21;96635.03;;;8.85;100.00
967;BME280;56108;48.730;9.304;2024-03-23T04:01:26;96622.25;;;8.79;100.00
967;BME280;56108;48.730;9.304;2024-03-23T04:03:34;96615.84;;;8.71;100.00
967;BME280;56108;48.730;9.304;2024-03-23T04:05:38;96606.34;;;8.91;100.00
967;BME280;56108;48.730;9.304;2024-03-23T04:07:42;96603.47;;;8.82;100.00
967;BME280;56108;48.730;9.304;2024-03-23T04:09:46;96582.59;;;8.78;100.00
967;BME280;56108;48.730;9.304;2024-03-23T04:11:50;96576.19;;;8.69;100.00
967;BME280;56108;48.730;9.304;2024-03-23T04:13:55;96581.63;;;8.56;100.00
967;BME280;56108;48.730;9.304;2024-03-23T04:15:59;96571.34;;;8.41;100.00
967;BME280;56108;48.730;9.304;2024-03-23T04:18:03;96577.00;;;8.36;100.00
967;BME280;56108;48.730;9.304;2024-03-23T04:20:11;96569.66;;;8.40;100.00
967;BME280;56108;48.730;9.304;2024-03-23T04:22:15;96548.56;;;8.38;100.00
967;BME280;56108;48.730;9.304;2024-03-23T04:24:19;96532.78;;;8.48;100.00
967;BME280;56108;48.730;9.304;2024-03-23T04:26:23;96528.94;;;8.63;100.00
967;BME280;56108;48.730;9.304;2024-03-23T04:28:28;96532.31;;;8.65;100.00
967;BME280;56108;48.730;9.304;2024-03-23T04:30:32;96527.00;;;8.76;100.00
967;BME280;56108;48.730;9.304;2024-03-23T04:32:36;96533.03;;;8.89;100.00
967;BME280;56108;48.730;9.304;2024-03-23T04:34:41;96527.59;;;8.91;100.00
967;BME280;56108;48.730;9.304;2024-03-23T04:36:48;96526.63;;;8.92;100.00
967;BME280;56108;48.730;9.304;2024-03-23T04:38:52;96532.75;;;8.93;100.00
967;BME280;56108;48.730;9.304;2024-03-23T04:40:57;96532.50;;;9.07;100.00
967;BME280;56108;48.730;9.304;2024-03-23T04:43:02;96529.63;;;9.10;100.00
967;BME280;56108;48.730;9.304;2024-03-23T04:45:07;96527.50;;;9.36;100.00
967;BME280;56108;48.730;9.304;2024-03-23T04:47:11;96534.03;;;9.32;100.00
967;BME280;56108;48.730;9.304;2024-03-23T04:49:16;96539.47;;;9.30;100.00
967;BME280;56108;48.730;9.304;2024-03-23T04:51:20;96543.19;;;9.28;100.00
967;BME280;56108;48.730;9.304;2024-03-23T04:53:28;96591.34;;;9.23;100.00
967;BME280;56108;48.730;9.304;2024-03-23T04:55:32;96594.41;;;8.74;100.00
967;BME280;56108;48.730;9.304;2024-03-23T04:57:36;96577.19;;;8.33;100.00
967;BME280;56108;48.730;9.304;2024-03-23T04:59:42;96578.38;;;8.64;100.00
967;BME280;56108;48.730;9.304;2024-03-23T05:01:46;96567.75;;;8.53;100.00
967;BME280;56108;48.730;9.304;2024-03-23T05:03:51;96571.38;;;8.74;100.00
967;BME280;56108;48.730;9.304;2024-03-23T05:05:56;96585.38;;;8.87;100.00
967;BME280;56108;48.730;9.304;2024-03-23T05:08:00;96589.31;;;8.82;100.00
967;BME280;56108;48.730;9.304;2024-03-23T05:10:09;96595.03;;;8.77;100.00
967;BME280;56108;48.730;9.304;2024-03-23T05:12:14;96581.38;;;8.82;100.00
967;BME280;56108;48.730;9.304;2024-03-23T05:14:19;96573.44;;;8.93;100.00
967;BME280;56108;48.730;9.304;2024-03-23T05:16:24;96565.06;;;8.98;100.00
967;BME280;56108;48.730;9.304;2024-03-23T05:18:28;96547.25;;;9.00;100.00
967;BME280;56108;48.730;9.304;2024-03-23T05:20:32;96523.00;;;9.04;100.00
967;BME280;56108;48.730;9.304;2024-03-23T05:22:36;96497.91;;;9.08;100.00
967;BME280;56108;48.730;9.304;2024-03-23T05:24:40;96471.94;;;9.12;100.00
967;BME280;56108;48.730;9.304;2024-03-23T05:26:47;96472.19;;;9.09;100.00
967;BME280;56108;48.730;9.304;2024-03-23T05:28:51;96473.28;;;9.06;100.00
967;BME280;56108;48.730;9.304;2024-03-23T05:30:55;96470.50;;;9.08;100.00
967;BME280;56108;48.730;9.304;2024-03-23T05:33:01;96462.06;;;9.14;100.00
967;BME280;56108;48.730;9.304;2024-03-23T05:35:06;96449.63;;;9.14;100.00
967;BME280;56108;48.730;9.304;2024-03-23T05:37:10;96458.44;;;9.15;100.00
967;BME280;56108;48.730;9.304;2024-03-23T05:39:14;96458.75;;;9.22;100.00
967;BME280;56108;48.730;9.304;2024-03-23T05:41:19;96459.72;;;9.21;100.00
967;BME280;56108;48.730;9.304;2024-03-23T05:43:26;96464.72;;;9.14;100.00
967;BME280;56108;48.730;9.304;2024-03-23T05:45:30;96477.00;;;9.15;100.00
967;BME280;56108;48.730;9.304;2024-03-23T05:47:34;96496.16;;;9.19;100.00
967;BME280;56108;48.730;9.304;2024-03-23T05:49:39;96518.41;;;9.06;100.00
967;BME280;56108;48.730;9.304;2024-03-23T05:51:43;96529.75;;;9.08;100.00
967;BME280;56108;48.730;9.304;2024-03-23T05:53:48;96551.91;;;9.07;100.00
967;BME280;56108;48.730;9.304;2024-03-23T05:56:00;96552.78;;;8.97;100.00
967;BME280;56108;48.730;9.304;2024-03-23T05:58:04;96559.53;;;9.01;100.00
967;BME280;56108;48.730;9.304;2024-03-23T06:00:12;96564.84;;;9.01;100.00
967;BME280;56108;48.730;9.304;2024-03-23T06:02:20;96570.16;;;9.01;100.00
967;BME280;56108;48.730;9.304;2024-03-23T06:04:24;96572.56;;;9.04;100.00
967;BME280;56108;48.730;9.304;2024-03-23T06:06:29;96563.16;;;9.00;100.00
967;BME280;56108;48.730;9.304;2024-03-23T06:08:34;96561.09;;;8.92;100.00
967;BME280;56108;48.730;9.304;2024-03-23T06:10:38;96584.03;;;8.93;100.00
967;BME280;56108;48.730;9.304;2024-03-23T06:12:43;96589.34;;;8.93;100.00
967;BME280;56108;48.730;9.304;2024-03-23T06:14:47;96600.41;;;8.87;100.00
967;BME280;56108;48.730;9.304;2024-03-23T06:16:54;96613.47;;;8.79;100.00
967;BME280;56108;48.730;9.304;2024-03-23T06:18:59;96612.63;;;8.78;100.00
967;BME280;56108;48.730;9.304;2024-03-23T06:21:03;96625.38;;;8.62;100.00
967;BME280;56108;48.730;9.304;2024-03-23T06:23:09;96649.75;;;8.67;100.00
967;BME280;56108;48.730;9.304;2024-03-23T06:25:13;96679.75;;;8.68;100.00
967;BME280;56108;48.730;9.304;2024-03-23T06:27:17;96683.81;;;8.60;100.00
967;BME280;56108;48.730;9.304;2024-03-23T06:29:22;96697.84;;;8.62;100.00
967;BME280;56108;48.730;9.304;2024-03-23T06:31:26;96694.19;;;8.52;100.00
967;BME280;56108;48.730;9.304;2024-03-23T06:33:33;96719.88;;;8.52;100.00
967;BME280;56108;48.730;9.304;2024-03-23T06:35:37;96727.53;;;8.44;100.00
967;BME280;56108;48.730;9.304;2024-03-23T06:37:41;96718.03;;;8.41;100.00
967;BME280;56108;48.730;9.304;2024-03-23T06:39:46;96726.63;;;8.32;100.00
967;BME280;56108;48.730;9.304;2024-03-23T06:41:54;96732.97;;;8.42;100.00
967;BME280;56108;48.730;9.304;2024-03-23T06:43:59;96738.91;;;8.33;100.00
967;BME280;56108;48.730;9.304;2024-03-23T06:46:03;96750.47;;;8.32;100.00
967;BME280;56108;48.730;9.304;2024-03-23T06:48:08;96743.19;;;8.23;100.00
967;BME280;56108;48.730;9.304;2024-03-23T06:50:14;96760.19;;;8.20;100.00
967;BME280;56108;48.730;9.304;2024-03-23T06:52:18;96776.09;;;8.20;100.00
967;BME280;56108;48.730;9.304;2024-03-23T06:54:24;96788.88;;;8.26;100.00
967;BME280;56108;48.730;9.304;2024-03-23T06:56:28;96807.13;;;8.18;100.00
967;BME280;56108;48.730;9.304;2024-03-23T06:58:32;96812.75;;;8.14;100.00
967;BME280;56108;48.730;9.304;2024-03-23T07:00:37;96814.38;;;8.16;100.00
967;BME280;56108;48.730;9.304;2024-03-23T07:02:41;96814.56;;;8.13;100.00
967;BME280;56108;48.730;9.304;2024-03-23T07:04:45;96812.88;;;8.12;100.00
967;BME280;56108;48.730;9.304;2024-03-23T07:06:52;96827.22;;;8.09;100.00
967;BME280;56108;48.730;9.304;2024-03-23T07:08:56;96818.31;;;8.10;100.00
967;BME280;56108;48.730;9.304;2024-03-23T07:11:00;96821.34;;;8.17;100.00
967;BME280;56108;48.730;9.304;2024-03-23T07:13:05;96839.75;;;8.31;100.00
967;BME280;56108;48.730;9.304;2024-03-23T07:15:09;96841.16;;;8.37;100.00
967;BME280;56108;48.730;9.304;2024-03-23T07:17:14;96840.91;;;8.40;100.00
967;BME280;56108;48.730;9.304;2024-03-23T07:19:18;96844.31;;;8.42;100.00
967;BME280;56108;48.730;9.304;2024-03-23T07:21:22;96854.81;;;8.44;100.00
967;BME280;56108;48.730;9.304;2024-03-23T07:23:29;96846.84;;;8.44;100.00
967;BME280;56108;48.730;9.304;2024-03-23T07:25:33;96851.94;;;8.47;100.00
967;BME280;56108;48.730;9.304;2024-03-23T07:27:38;96848.31;;;8.48;100.00
967;BME280;56108;48.730;9.304;2024-03-23T07:29:42;96847.25;;;8.50;100.00
967;BME280;56108;48.730;9.304;2024-03-23T07:31:46;96850.06;;;8.36;100.00
967;BME280;56108;48.730;9.304;2024-03-23T07:33:50;96854.59;;;8.47;100.00
967;BME280;56108;48.730;9.304;2024-03-23T07:35:54;96858.28;;;8.44;100.00
967;BME280;56108;48.730;9.304;2024-03-23T07:37:59;96868.09;;;8.31;100.00
967;BME280;56108;48.730;9.304;2024-03-23T07:40:07;96876.13;;;8.29;100.00
967;BME280;56108;48.730;9.304;2024-03-23T07:42:12;96876.13;;;8.42;100.00
967;BME280;56108;48.730;9.304;2024-03-23T07:44:16;96885.19;;;8.63;100.00
967;BME280;56108;48.730;9.304;2024-03-23T07:46:21;96891.31;;;8.64;100.00
967;BME280;56108;48.730;9.304;2024-03-23T07:48:25;96885.69;;;8.69;100.00
967;BME280;56108;48.730;9.304;2024-03-23T07:50:29;96888.00;;;8.73;100.00
967;BME280;56108;48.730;9.304;2024-03-23T07:52:34;96889.69;;;8.74;100.00
967;BME280;56108;48.730;9.304;2024-03-23T07:54:38;96896.69;;;8.75;100.00
967;BME280;56108;48.730;9.304;2024-03-23T07:56:45;96900.50;;;8.71;100.00
967;BME280;56108;48.730;9.304;2024-03-23T07:58:49;96908.47;;;8.71;100.00
967;BME280;56108;48.730;9.304;2024-03-23T08:00:54;96907.81;;;8.80;100.00
967;BME280;56108;48.730;9.304;2024-03-23T08:02:59;96917.19;;;8.73;100.00
967;BME280;56108;48.730;9.304;2024-03-23T08:05:03;96918.88;;;8.74;100.00
967;BME280;56108;48.730;9.304;2024-03-23T08:07:07;96936.75;;;8.59;100.00
967;BME280;56108;48.730;9.304;2024-03-23T08:09:12;96945.84;;;8.68;100.00
967;BME280;56108;48.730;9.304;2024-03-23T08:11:16;96945.91;;;8.43;100.00
967;BME280;56108;48.730;9.304;2024-03-23T08:13:23;96939.13;;;8.26;100.00
967;BME280;56108;48.730;9.304;2024-03-23T08:15:30;96950.81;;;8.10;100.00
967;BME280;56108;48.730;9.304;2024-03-23T08:17:34;96954.28;;;7.98;100.00
967;BME280;56108;48.730;9.304;2024-03-23T08:19:38;96961.84;;;7.79;100.00
967;BME280;56108;48.730;9.304;2024-03-23T08:21:42;96950.59;;;7.75;100.00
967;BME280;56108;48.730;9.304;2024-03-23T08:23:47;96960.22;;;7.76;100.00
967;BME280;56108;48.730;9.304;2024-03-23T08:25:52;96981.97;;;7.94;100.00
967;BME280;56108;48.730;9.304;2024-03-23T08:27:56;96992.59;;;8.20;100.00
967;BME280;56108;48.730;9.304;2024-03-23T08:30:04;97012.72;;;8.22;100.00
967;BME280;56108;48.730;9.304;2024-03-23T08:32:09;97024.28;;;8.21;100.00
967;BME280;56108;48.730;9.304;2024-03-23T08:34:13;97023.13;;;8.25;100.00
967;BME280;56108;48.730;9.304;2024-03-23T08:36:17;97041.44;;;8.28;100.00
967;BME280;56108;48.730;9.304;2024-03-23T08:38:21;97042.81;;;8.34;100.00
967;BME280;56108;48.730;9.304;2024-03-23T08:40:26;97034.31;;;8.29;100.00
967;BME280;56108;48.730;9.304;2024-03-23T08:42:30;97048.25;;;8.45;100.00
967;BME280;56108;48.730;9.304;2024-03-23T08:44:34;97036.28;;;8.52;100.00
967;BME280;56108;48.730;9.304;2024-03-23T08:46:42;97023.41;;;8.59;100.00
967;BME280;56108;48.730;9.304;2024-03-23T08:48:47;97025.63;;;8.78;100.00
967;BME280;56108;48.730;9.304;2024-03-23T08:50:59;97047.72;;;9.15;100.00
967;BME280;56108;48.730;9.304;2024-03-23T08:53:04;97066.38;;;9.50;100.00
967;BME280;56108;48.730;9.304;2024-03-23T08:55:08;97080.06;;;9.57;100.00
967;BME280;56108;48.730;9.304;2024-03-23T08:57:12;97088.03;;;9.57;100.00
967;BME280;56108;48.730;9.304;2024-03-23T08:59:17;97092.53;;;9.44;100.00
967;BME280;56108;48.730;9.304;2024-03-23T09:01:21;97099.03;;;9.63;100.00
967;BME280;56108;48.730;9.304;2024-03-23T09:03:28;97094.50;;;9.53;100.00
967;BME280;56108;48.730;9.304;2024-03-23T09:05:32;97110.28;;;9.43;100.00
967;BME280;56108;48.730;9.304;2024-03-23T09:07:42;97117.50;;;9.65;100.00
967;BME280;56108;48.730;9.304;2024-03-23T09:09:46;97124.81;;;9.50;100.00
967;BME280;56108;48.730;9.304;2024-03-23T09:11:51;97126.78;;;9.35;100.00
967;BME280;56108;48.730;9.304;2024-03-23T09:13:55;97141.38;;;8.92;100.00
967;BME280;56108;48.730;9.304;2024-03-23T09:15:59;97141.09;;;8.83;100.00
967;BME280;56108;48.730;9.304;2024-03-23T09:18:04;97151.25;;;8.77;100.00
967;BME280;56108;48.730;9.304;2024-03-23T09:20:14;97157.31;;;8.66;100.00
967;BME280;56108;48.730;9.304;2024-03-23T09:22:19;97152.34;;;8.61;100.00
967;BME280;56108;48.730;9.304;2024-03-23T09:24:23;97148.81;;;8.48;100.00
967;BME280;56108;48.730;9.304;2024-03-23T09:26:27;97154.34;;;8.71;100.00
967;BME280;56108;48.730;9.304;2024-03-23T09:28:32;97149.34;;;8.79;100.00
967;BME280;56108;48.730;9.304;2024-03-23T09:30:36;97154.53;;;9.06;100.00
967;BME280;56108;48.730;9.304;2024-03-23T09:32:42;97155.41;;;8.94;100.00
967;BME280;56108;48.730;9.304;2024-03-23T09:34:47;97155.50;;;8.92;100.00
967;BME280;56108;48.730;9.304;2024-03-23T09:36:54;97163.75;;;9.13;100.00
967;BME280;56108;48.730;9.304;2024-03-23T09:38:58;97162.88;;;9.38;100.00
967;BME280;56108;48.730;9.304;2024-03-23T09:41:06;97168.94;;;9.40;100.00
967;BME280;56108;48.730;9.304;2024-03-23T09:43:12;97164.53;;;9.88;95.82
967;BME280;56108;48.730;9.304;2024-03-23T09:45:17;97171.63;;;10.60;89.34
967;BME280;56108;48.730;9.304;2024-03-23T09:47:24;97169.44;;;10.65;87.95
967;BME280;56108;48.730;9.304;2024-03-23T09:49:29;97155.16;;;10.66;85.55
967;BME280;56108;48.730;9.304;2024-03-23T09:51:35;97166.53;;;10.68;80.74
967;BME280;56108;48.730;9.304;2024-03-23T09:53:42;97176.44;;;10.55;73.74
967;BME280;56108;48.730;9.304;2024-03-23T09:55:46;97174.44;;;10.34;72.80
967;BME280;56108;48.730;9.304;2024-03-23T09:57:51;97178.41;;;10.29;72.46
967;BME280;56108;48.730;9.304;2024-03-23T09:59:55;97182.78;;;10.17;73.59
967;BME280;56108;48.730;9.304;2024-03-23T10:01:59;97177.44;;;10.30;75.10
967;BME280;56108;48.730;9.304;2024-03-23T10:04:04;97201.41;;;9.93;72.05
967;BME280;56108;48.730;9.304;2024-03-23T10:06:08;97191.50;;;9.71;72.73
967;BME280;56108;48.730;9.304;2024-03-23T10:08:18;97193.56;;;9.42;71.02
967;BME280;56108;48.730;9.304;2024-03-23T10:10:25;97193.78;;;9.39;73.15
967;BME280;56108;48.730;9.304;2024-03-23T10:12:30;97201.66;;;9.28;72.38
967;BME280;56108;48.730;9.304;2024-03-23T10:14:34;97190.94;;;9.17;73.28
967;BME280;56108;48.730;9.304;2024-03-23T10:16:39;97184.16;;;9.12;73.72
967;BME280;56108;48.730;9.304;2024-03-23T10:18:43;97180.97;;;9.20;73.50
967;BME280;56108;48.730;9.304;2024-03-23T10:20:51;97181.06;;;9.31;74.01
967;BME280;56108;48.730;9.304;2024-03-23T10:22:55;97176.25;;;9.36;73.41
967;BME280;56108;48.730;9.304;2024-03-23T10:25:07;97171.31;;;9.19;75.85
967;BME280;56108;48.730;9.304;2024-03-23T10:27:18;97174.09;;;9.05;77.50
967;BME280;56108;48.730;9.304;2024-03-23T10:29:23;97167.38;;;9.12;78.13
967;BME280;56108;48.730;9.304;2024-03-23T10:31:27;97161.00;;;9.14;80.00
967;BME280;56108;48.730;9.304;2024-03-23T10:33:32;97164.56;;;9.39;78.92
967;BME280;56108;48.730;9.304;2024-03-23T10:35:37;97169.47;;;9.32;77.25
967;BME280;56108;48.730;9.304;2024-03-23T10:37:42;97171.03;;;9.48;78.79
967;BME280;56108;48.730;9.304;2024-03-23T10:39:46;97166.75;;;9.58;78.73
967;BME280;56108;48.730;9.304;2024-03-23T10:41:52;97163.16;;;9.83;79.17
967;BME280;56108;48.730;9.304;2024-03-23T10:44:01;97175.88;;;10.14;72.39
967;BME280;56108;48.730;9.304;2024-03-23T10:46:06;97165.94;;;10.05;70.80
967;BME280;56108;48.730;9.304;2024-03-23T10:48:10;97172.88;;;9.71;68.62
967;BME280;56108;48.730;9.304;2024-03-23T10:50:15;97163.50;;;9.41;71.62
967;BME280;56108;48.730;9.304;2024-03-23T10:52:19;97160.78;;;9.30;69.37
967;BME280;56108;48.730;9.304;2024-03-23T10:54:24;97174.50;;;9.24;69.59
967;BME280;56108;48.730;9.304;2024-03-23T10:56:30;97186.38;;;9.06;65.96
967;BME280;56108;48.730;9.304;2024-03-23T10:58:39;97184.28;;;8.98;68.70
967;BME280;56108;48.730;9.304;2024-03-23T11:00:47;97191.16;;;9.01;70.34
967;BME280;56108;48.730;9.304;2024-03-23T11:02:52;97184.91;;;8.76;72.28
967;BME280;56108;48.730;9.304;2024-03-23T11:04:56;97182.03;;;8.54;79.75
967;BME280;56108;48.730;9.304;2024-03-23T11:07:01;97162.41;;;8.29;86.05
967;BME280;56108;48.730;9.304;2024-03-23T11:09:38;97172.88;;;8.05;100.00
967;BME280;56108;48.730;9.304;2024-03-23T11:11:42;97186.75;;;7.55;100.00
967;BME280;56108;48.730;9.304;2024-03-23T11:13:48;97190.50;;;6.81;100.00
967;BME280;56108;48.730;9.304;2024-03-23T11:15:55;97207.88;;;6.41;100.00
967;BME280;56108;48.730;9.304;2024-03-23T11:18:03;97199.72;;;5.99;100.00
967;BME280;56108;48.730;9.304;2024-03-23T11:20:11;97170.19;;;5.93;100.00
967;BME280;56108;48.730;9.304;2024-03-23T11:22:42;97170.03;;;5.96;100.00
967;BME280;56108;48.730;9.304;2024-03-23T11:24:50;97181.59;;;6.23;100.00
967;BME280;56108;48.730;9.304;2024-03-23T11:26:54;97173.41;;;6.28;100.00
967;BME280;56108;48.730;9.304;2024-03-23T11:29:09;97173.84;;;6.65;100.00
967;BME280;56108;48.730;9.304;2024-03-23T11:31:16;97178.50;;;6.90;100.00
967;BME280;56108;48.730;9.304;2024-03-23T11:33:20;97177.06;;;7.27;100.00
967;BME280;56108;48.730;9.304;2024-03-23T11:35:25;97186.91;;;7.66;100.00
967;BME280;56108;48.730;9.304;2024-03-23T11:37:30;97192.97;;;7.68;100.00
967;BME280;56108;48.730;9.304;2024-03-23T11:39:35;97195.13;;;7.76;100.00
967;BME280;56108;48.730;9.304;2024-03-23T11:41:46;97191.28;;;7.94;100.00
967;BME280;56108;48.730;9.304;2024-03-23T11:43:51;97193.63;;;7.99;100.00
967;BME280;56108;48.730;9.304;2024-03-23T11:45:55;97198.31;;;7.81;100.00
967;BME280;56108;48.730;9.304;2024-03-23T11:48:15;97186.97;;;8.06;100.00
967;BME280;56108;48.730;9.304;2024-03-23T11:50:20;97193.34;;;8.43;100.00
967;BME280;56108;48.730;9.304;2024-03-23T11:52:25;97192.13;;;8.87;100.00
967;BME280;56108;48.730;9.304;2024-03-23T11:54:29;97194.31;;;9.19;100.00
967;BME280;56108;48.730;9.304;2024-03-23T11:56:33;97189.66;;;9.22;100.00
967;BME280;56108;48.730;9.304;2024-03-23T11:58:38;97187.09;;;9.33;100.00
967;BME280;56108;48.730;9.304;2024-03-23T12:00:43;97196.41;;;9.52;100.00
967;BME280;56108;48.730;9.304;2024-03-23T12:02:53;97193.38;;;9.45;100.00
967;BME280;56108;48.730;9.304;2024-03-23T12:05:14;97194.81;;;9.49;100.00
967;BME280;56108;48.730;9.304;2024-03-23T12:07:19;97191.75;;;9.43;100.00
967;BME280;56108;48.730;9.304;2024-03-23T12:09:23;97198.63;;;9.08;98.24
967;BME280;56108;48.730;9.304;2024-03-23T12:11:28;97198.25;;;9.13;100.00
967;BME280;56108;48.730;9.304;2024-03-23T12:13:32;97190.13;;;9.03;99.26
967;BME280;56108;48.730;9.304;2024-03-23T12:15:37;97189.25;;;8.90;100.00